createdAt,value
2023-05-20T00:01:32.192Z,10.40
2023-05-20T00:04:01.045Z,10.40
2023-05-20T00:06:29.835Z,10.40
2023-05-20T00:09:00.533Z,10.40
2023-05-20T00:11:29.084Z,10.30
2023-05-20T00:13:57.588Z,10.30
2023-05-20T00:16:26.083Z,10.30
2023-05-20T00:18:54.749Z,10.30
2023-05-20T00:21:23.408Z,10.30
2023-05-20T00:23:52.278Z,10.20
2023-05-20T00:26:22.599Z,10.20
2023-05-20T00:28:51.072Z,10.20
2023-05-20T00:31:19.576Z,10.20
2023-05-20T00:33:48.146Z,10.10
2023-05-20T00:36:16.615Z,10.10
2023-05-20T00:38:45.128Z,10.10
2023-05-20T00:41:14.031Z,10.10
2023-05-20T00:43:43.902Z,10.10
2023-05-20T00:46:13.050Z,10.10
2023-05-20T00:48:44.818Z,10.10
2023-05-20T00:51:15.304Z,10.10
2023-05-20T00:53:45.051Z,10.10
2023-05-20T00:56:14.224Z,10.00
2023-05-20T00:58:44.306Z,10.00
2023-05-20T01:01:12.877Z,9.90
2023-05-20T01:03:41.899Z,9.90
2023-05-20T01:06:10.550Z,9.80
2023-05-20T01:08:39.122Z,9.80
2023-05-20T01:11:12.773Z,9.70
2023-05-20T01:13:48.458Z,9.70
2023-05-20T01:16:23.503Z,9.70
2023-05-20T01:18:57.468Z,9.70
2023-05-20T01:21:29.748Z,9.70
2023-05-20T01:24:01.784Z,9.70
2023-05-20T01:26:30.341Z,9.70
2023-05-20T01:29:04.432Z,9.80
2023-05-20T01:31:38.232Z,9.80
2023-05-20T01:34:08.127Z,9.80
2023-05-20T01:36:37.346Z,9.80
2023-05-20T01:39:08.340Z,9.80
2023-05-20T01:41:38.596Z,9.90
2023-05-20T01:44:07.580Z,9.90
2023-05-20T01:46:36.268Z,9.80
2023-05-20T01:49:04.777Z,9.80
2023-05-20T01:51:35.219Z,9.80
2023-05-20T01:54:03.814Z,9.80
2023-05-20T01:56:34.137Z,9.70
2023-05-20T01:59:02.673Z,9.80
2023-05-20T02:01:31.289Z,9.80
2023-05-20T02:04:02.248Z,9.70
2023-05-20T02:06:30.831Z,9.80
2023-05-20T02:08:59.357Z,9.70
2023-05-20T02:11:28.655Z,9.70
2023-05-20T02:13:59.091Z,9.70
2023-05-20T02:16:27.728Z,9.80
2023-05-20T02:18:58.657Z,9.70
2023-05-20T02:21:27.933Z,9.60
2023-05-20T02:23:56.486Z,9.60
2023-05-20T02:26:25.394Z,9.50
2023-05-20T02:28:53.937Z,9.50
2023-05-20T02:31:23.837Z,9.50
2023-05-20T02:33:52.621Z,9.40
2023-05-20T02:36:21.299Z,9.40
2023-05-20T02:38:51.220Z,9.40
2023-05-20T02:41:19.751Z,9.30
2023-05-20T02:43:48.305Z,9.30
2023-05-20T02:46:18.762Z,9.30
2023-05-20T02:48:48.759Z,9.30
2023-05-20T02:51:17.478Z,9.30
2023-05-20T02:53:46.009Z,9.30
2023-05-20T02:56:14.584Z,9.20
2023-05-20T02:58:43.120Z,9.20
2023-05-20T03:01:11.636Z,9.20
2023-05-20T03:03:40.791Z,9.30
2023-05-20T03:06:10.903Z,9.30
2023-05-20T03:08:42.849Z,9.30
2023-05-20T03:11:11.658Z,9.30
2023-05-20T03:13:40.195Z,9.30
2023-05-20T03:16:09.000Z,9.10
2023-05-20T03:18:37.608Z,9.10
2023-05-20T03:21:06.446Z,9.10
2023-05-20T03:23:36.374Z,9.10
2023-05-20T03:26:06.858Z,9.10
2023-05-20T03:28:35.503Z,9.10
2023-05-20T03:31:04.651Z,9.20
2023-05-20T03:33:36.172Z,9.30
2023-05-20T03:36:05.168Z,9.30
2023-05-20T03:38:35.025Z,9.30
2023-05-20T03:41:03.581Z,9.30
2023-05-20T03:43:32.027Z,9.40
2023-05-20T03:46:00.689Z,9.40
2023-05-20T03:48:29.230Z,9.40
2023-05-20T03:50:57.653Z,9.50
2023-05-20T03:53:26.311Z,9.60
2023-05-20T03:55:56.151Z,9.70
2023-05-20T03:58:25.359Z,9.80
2023-05-20T04:00:53.838Z,9.90
2023-05-20T04:03:23.079Z,10.00
2023-05-20T04:05:52.118Z,10.10
2023-05-20T04:08:22.119Z,10.20
2023-05-20T04:10:50.676Z,10.30
2023-05-20T04:13:20.634Z,10.40
2023-05-20T04:15:49.257Z,10.50
2023-05-20T04:18:17.722Z,10.70
2023-05-20T04:20:47.666Z,10.80
2023-05-20T04:23:16.157Z,11.00
2023-05-20T04:25:44.812Z,11.10
2023-05-20T04:28:14.253Z,11.30
2023-05-20T04:30:45.201Z,11.40
2023-05-20T04:33:14.948Z,11.60
2023-05-20T04:35:44.348Z,11.70
2023-05-20T04:38:12.839Z,11.80
2023-05-20T04:40:41.380Z,12.00
2023-05-20T04:43:09.964Z,12.10
2023-05-20T04:45:38.644Z,12.20
2023-05-20T04:48:09.311Z,12.30
2023-05-20T04:50:39.286Z,12.40
2023-05-20T04:53:07.974Z,12.60
2023-05-20T04:55:37.429Z,12.70
2023-05-20T04:58:06.689Z,12.90
2023-05-20T05:00:35.750Z,13.00
2023-05-20T05:03:04.405Z,13.20
2023-05-20T05:05:35.639Z,13.30
2023-05-20T05:08:04.417Z,13.30
2023-05-20T05:10:33.488Z,13.40
2023-05-20T05:13:02.267Z,13.50
2023-05-20T05:15:31.356Z,13.60
2023-05-20T05:18:00.046Z,13.80
2023-05-20T05:20:28.571Z,13.90
2023-05-20T05:22:58.500Z,14.00
2023-05-20T05:25:27.042Z,14.10
2023-05-20T05:27:55.623Z,14.20
2023-05-20T05:30:24.347Z,14.30
2023-05-20T05:32:52.935Z,14.50
2023-05-20T05:35:21.943Z,14.60
2023-05-20T05:37:50.543Z,14.70
2023-05-20T05:40:20.565Z,14.90
2023-05-20T05:42:49.030Z,15.00
2023-05-20T05:45:17.683Z,15.10
2023-05-20T05:47:46.308Z,15.30
2023-05-20T05:50:14.782Z,15.40
2023-05-20T05:52:43.303Z,15.50
2023-05-20T05:55:13.266Z,15.70
2023-05-20T05:57:43.139Z,15.90
2023-05-20T06:00:13.307Z,16.00
2023-05-20T06:02:41.994Z,16.10
2023-05-20T06:05:11.572Z,16.20
2023-05-20T06:07:40.118Z,16.30
2023-05-20T06:10:10.253Z,16.30
2023-05-20T06:12:38.799Z,16.30
2023-05-20T06:15:10.722Z,16.50
2023-05-20T06:17:39.327Z,16.70
2023-05-20T06:20:09.620Z,16.90
2023-05-20T06:22:38.174Z,17.00
2023-05-20T06:25:08.128Z,17.10
2023-05-20T06:27:36.606Z,17.20
2023-05-20T06:30:05.978Z,17.30
2023-05-20T06:32:35.934Z,17.50
2023-05-20T06:35:04.600Z,17.50
2023-05-20T06:37:33.240Z,17.60
2023-05-20T06:40:01.913Z,17.70
2023-05-20T06:42:31.010Z,17.70
2023-05-20T06:44:59.824Z,17.80
2023-05-20T06:47:28.439Z,17.90
2023-05-20T06:49:58.353Z,18.00
2023-05-20T06:52:26.967Z,18.10
2023-05-20T06:54:55.503Z,18.20
2023-05-20T06:57:24.116Z,18.40
2023-05-20T06:59:52.528Z,18.50
2023-05-20T07:02:21.040Z,18.60
2023-05-20T07:04:49.580Z,18.70
2023-05-20T07:07:19.421Z,18.90
2023-05-20T07:09:47.945Z,19.00
2023-05-20T07:12:16.606Z,19.10
2023-05-20T07:14:45.153Z,19.10
2023-05-20T07:17:14.309Z,19.20
2023-05-20T07:19:42.809Z,19.40
2023-05-20T07:22:11.732Z,19.50
2023-05-20T07:24:41.553Z,19.60
2023-05-20T07:27:10.065Z,19.70
2023-05-20T07:29:39.254Z,19.90
2023-05-20T07:32:10.415Z,20.00
2023-05-20T07:34:38.980Z,20.20
2023-05-20T07:37:07.750Z,20.30
2023-05-20T07:39:36.329Z,20.50
2023-05-20T07:42:06.795Z,20.40
2023-05-20T07:44:35.320Z,20.40
2023-05-20T07:47:04.212Z,20.50
2023-05-20T07:49:32.717Z,20.50
2023-05-20T07:52:02.887Z,20.50
2023-05-20T07:54:31.704Z,20.50
2023-05-20T07:57:01.096Z,20.50
2023-05-20T07:59:30.964Z,20.60
2023-05-20T08:02:00.187Z,20.80
2023-05-20T08:04:29.072Z,21.00
2023-05-20T08:06:57.688Z,21.10
2023-05-20T08:09:26.491Z,20.90
2023-05-20T08:11:54.938Z,20.90
2023-05-20T08:14:23.623Z,20.90
2023-05-20T08:16:55.008Z,21.00
2023-05-20T08:19:23.803Z,21.20
2023-05-20T08:21:52.468Z,21.30
2023-05-20T08:24:20.978Z,21.20
2023-05-20T08:26:49.527Z,21.00
2023-05-20T08:29:18.075Z,20.80
2023-05-20T08:31:46.594Z,20.70
2023-05-20T08:34:16.702Z,20.70
2023-05-20T08:36:46.143Z,20.70
2023-05-20T08:39:15.261Z,20.70
2023-05-20T08:41:43.918Z,20.70
2023-05-20T08:44:12.698Z,20.70
2023-05-20T08:46:42.502Z,20.70
2023-05-20T08:49:11.102Z,20.80
2023-05-20T08:51:43.066Z,20.80
2023-05-20T08:54:12.919Z,20.80
2023-05-20T08:56:42.835Z,20.80
2023-05-20T08:59:11.544Z,20.70
2023-05-20T09:01:44.273Z,20.70
2023-05-20T09:04:12.871Z,20.80
2023-05-20T09:06:46.998Z,20.80
2023-05-20T09:09:15.931Z,20.90
2023-05-20T09:11:44.966Z,21.00
2023-05-20T09:14:13.517Z,20.90
2023-05-20T09:16:42.250Z,20.90
2023-05-20T09:19:12.076Z,20.90
2023-05-20T09:21:43.218Z,21.10
2023-05-20T09:24:13.148Z,21.20
2023-05-20T09:26:41.935Z,21.10
2023-05-20T09:29:10.457Z,21.00
2023-05-20T09:31:39.367Z,20.90
2023-05-20T09:34:09.383Z,20.90
2023-05-20T09:36:41.711Z,21.10
2023-05-20T09:39:16.786Z,21.20
2023-05-20T09:41:56.645Z,21.30
2023-05-20T09:44:25.538Z,21.20
2023-05-20T09:46:55.887Z,21.30
2023-05-20T09:49:26.280Z,21.30
2023-05-20T09:51:57.274Z,21.30
2023-05-20T09:54:29.966Z,21.40
2023-05-20T09:57:00.863Z,21.50
2023-05-20T09:59:31.406Z,21.50
2023-05-20T10:01:59.963Z,21.50
2023-05-20T10:04:31.032Z,21.60
2023-05-20T10:07:42.103Z,21.60
2023-05-20T10:10:30.355Z,21.70
2023-05-20T10:13:19.707Z,21.70
2023-05-20T10:16:02.972Z,21.80
2023-05-20T10:18:50.865Z,22.00
2023-05-20T10:21:24.562Z,22.10
2023-05-20T10:23:54.114Z,22.10
2023-05-20T10:26:24.050Z,22.30
2023-05-20T10:28:52.557Z,22.20
2023-05-20T10:31:24.080Z,22.20
2023-05-20T10:33:56.121Z,22.30
2023-05-20T10:36:27.041Z,22.30
2023-05-20T10:38:57.312Z,22.30
2023-05-20T10:41:29.341Z,22.30
2023-05-20T10:44:05.689Z,22.50
2023-05-20T10:46:48.669Z,22.60
2023-05-20T10:49:26.922Z,22.60
2023-05-20T10:51:56.532Z,22.40
2023-05-20T10:54:25.156Z,22.50
2023-05-20T10:56:56.031Z,22.60
2023-05-20T10:59:24.731Z,22.60
2023-05-20T11:01:54.726Z,22.70
2023-05-20T11:04:23.639Z,22.50
2023-05-20T11:06:54.192Z,22.70
2023-05-20T11:09:23.163Z,22.80
2023-05-20T11:11:53.493Z,22.80
2023-05-20T11:14:23.623Z,22.90
2023-05-20T11:16:58.109Z,22.70
2023-05-20T11:19:27.570Z,22.50
2023-05-20T11:21:56.383Z,22.50
2023-05-20T11:24:27.674Z,22.60
2023-05-20T11:26:57.621Z,22.70
2023-05-20T11:29:29.164Z,22.60
2023-05-20T11:31:57.797Z,22.50
2023-05-20T11:34:27.750Z,22.20
2023-05-20T11:37:01.231Z,22.30
2023-05-20T11:39:32.058Z,22.40
2023-05-20T11:42:00.756Z,22.50
2023-05-20T11:44:30.700Z,22.50
2023-05-20T11:47:03.694Z,22.40
2023-05-20T11:49:41.093Z,22.40
2023-05-20T11:52:12.227Z,22.40
2023-05-20T11:54:40.747Z,22.60
2023-05-20T11:57:09.426Z,22.70
2023-05-20T11:59:39.603Z,22.70
2023-05-20T12:02:08.416Z,22.40
2023-05-20T12:04:37.022Z,22.20
2023-05-20T12:07:09.319Z,22.40
2023-05-20T12:09:37.784Z,22.30
2023-05-20T12:12:06.935Z,22.00
2023-05-20T12:14:35.349Z,22.10
2023-05-20T12:17:05.730Z,22.10
2023-05-20T12:19:35.979Z,22.30
2023-05-20T12:22:05.207Z,22.40
2023-05-20T12:24:33.655Z,22.50
2023-05-20T12:27:04.156Z,22.60
2023-05-20T12:29:32.687Z,22.50
2023-05-20T12:32:01.855Z,22.60
2023-05-20T12:34:33.182Z,22.60
2023-05-20T12:37:01.881Z,22.70
2023-05-20T12:39:30.335Z,22.60
2023-05-20T12:41:58.855Z,22.60
2023-05-20T12:44:28.208Z,22.60
2023-05-20T12:46:57.390Z,22.40
2023-05-20T12:49:25.985Z,22.50
2023-05-20T12:51:55.884Z,22.50
2023-05-20T12:54:28.187Z,22.30
2023-05-20T12:56:56.885Z,22.00
2023-05-20T12:59:25.388Z,21.70
2023-05-20T13:01:53.890Z,21.40
2023-05-20T13:04:22.428Z,21.10
2023-05-20T13:06:50.911Z,21.00
2023-05-20T13:09:20.820Z,21.00
2023-05-20T13:11:49.398Z,20.80
2023-05-20T13:14:17.920Z,20.90
2023-05-20T13:16:46.667Z,20.90
2023-05-20T13:19:15.219Z,20.70
2023-05-20T13:21:43.810Z,20.40
2023-05-20T13:24:12.402Z,20.50
2023-05-20T13:26:42.349Z,20.40
2023-05-20T13:29:11.372Z,20.40
2023-05-20T13:31:40.112Z,20.50
2023-05-20T13:34:08.754Z,20.70
2023-05-20T13:36:37.345Z,20.70
2023-05-20T13:39:05.928Z,20.60
2023-05-20T13:41:34.483Z,20.60
2023-05-20T13:44:04.886Z,20.60
2023-05-20T13:46:33.752Z,20.60
2023-05-20T13:49:02.421Z,20.70
2023-05-20T13:51:32.438Z,20.80
2023-05-20T13:54:01.003Z,20.90
2023-05-20T13:56:29.816Z,20.90
2023-05-20T13:58:58.441Z,20.80
2023-05-20T14:01:29.277Z,20.70
2023-05-20T14:03:57.980Z,20.80
2023-05-20T14:06:27.562Z,20.90
2023-05-20T14:08:57.854Z,20.70
2023-05-20T14:11:26.369Z,20.70
2023-05-20T14:13:54.881Z,20.50
2023-05-20T14:16:23.500Z,20.40
2023-05-20T14:18:53.598Z,20.40
2023-05-20T14:21:22.281Z,20.40
2023-05-20T14:23:50.817Z,20.40
2023-05-20T14:26:19.315Z,20.30
2023-05-20T14:28:47.797Z,20.30
2023-05-20T14:31:16.510Z,20.40
2023-05-20T14:33:45.097Z,20.40
2023-05-20T14:36:14.922Z,20.30
2023-05-20T14:38:43.405Z,20.30
2023-05-20T14:41:11.900Z,20.30
2023-05-20T14:43:40.350Z,20.30
2023-05-20T14:46:08.887Z,20.40
2023-05-20T14:48:37.403Z,20.50
2023-05-20T14:51:06.387Z,20.60
2023-05-20T14:53:36.271Z,20.60
2023-05-20T14:56:05.459Z,20.50
2023-05-20T14:58:33.901Z,20.40
2023-05-20T15:01:02.570Z,20.30
2023-05-20T15:03:31.760Z,20.20
2023-05-20T15:06:00.490Z,19.90
2023-05-20T15:08:29.098Z,19.50
2023-05-20T15:10:58.979Z,19.20
2023-05-20T15:13:27.464Z,19.00
2023-05-20T15:15:56.106Z,18.90
2023-05-20T15:18:24.596Z,18.80
2023-05-20T15:20:53.272Z,18.70
2023-05-20T15:23:21.800Z,18.70
2023-05-20T15:25:50.420Z,18.80
2023-05-20T15:28:20.525Z,18.90
2023-05-20T15:30:57.208Z,18.80
2023-05-20T15:33:25.854Z,18.60
2023-05-20T15:35:54.475Z,18.60
2023-05-20T15:38:23.063Z,18.50
2023-05-20T15:40:51.589Z,18.60
2023-05-20T15:43:21.678Z,18.80
2023-05-20T15:45:50.345Z,19.00
2023-05-20T15:48:18.985Z,19.00
2023-05-20T15:50:47.596Z,19.10
2023-05-20T15:53:16.916Z,19.00
2023-05-20T15:55:45.889Z,18.90
2023-05-20T15:58:14.411Z,18.80
2023-05-20T16:00:44.361Z,18.70
2023-05-20T16:03:13.040Z,18.60
2023-05-20T16:05:41.656Z,18.50
2023-05-20T16:08:10.196Z,18.50
2023-05-20T16:10:38.681Z,18.40
2023-05-20T16:13:07.222Z,18.40
2023-05-20T16:15:38.462Z,18.40
2023-05-20T16:18:08.533Z,18.30
2023-05-20T16:20:37.393Z,18.30
2023-05-20T16:23:06.303Z,18.30
2023-05-20T16:25:34.884Z,18.30
2023-05-20T16:28:03.411Z,18.30
2023-05-20T16:30:31.977Z,18.30
2023-05-20T16:33:00.589Z,18.30
2023-05-20T16:35:30.622Z,18.30
2023-05-20T16:37:59.224Z,18.30
2023-05-20T16:40:27.808Z,18.40
2023-05-20T16:42:56.334Z,18.40
2023-05-20T16:45:25.149Z,18.40
2023-05-20T16:47:53.878Z,18.30
2023-05-20T16:50:22.465Z,18.30
2023-05-20T16:52:52.422Z,18.20
2023-05-20T16:55:21.214Z,18.20
2023-05-20T16:57:50.573Z,18.20
2023-05-20T17:00:19.190Z,18.10
2023-05-20T17:02:47.746Z,18.10
2023-05-20T17:05:17.076Z,18.00
2023-05-20T17:07:45.963Z,18.00
2023-05-20T17:10:15.931Z,18.00
2023-05-20T17:12:44.496Z,18.00
2023-05-20T17:15:13.114Z,17.90
2023-05-20T17:17:41.642Z,17.90
2023-05-20T17:20:11.740Z,17.90
2023-05-20T17:22:40.274Z,17.90
2023-05-20T17:25:09.996Z,17.80
2023-05-20T17:27:40.046Z,17.80
2023-05-20T17:30:09.884Z,17.70
2023-05-20T17:32:40.653Z,17.70
2023-05-20T17:35:10.620Z,17.60
2023-05-20T17:37:39.152Z,17.50
2023-05-20T17:40:09.491Z,17.50
2023-05-20T17:42:39.482Z,17.40
2023-05-20T17:45:09.234Z,17.30
2023-05-20T17:47:37.781Z,17.30
2023-05-20T17:50:07.733Z,17.20
2023-05-20T17:52:36.126Z,17.10
2023-05-20T17:55:06.715Z,17.00
2023-05-20T17:57:35.631Z,17.00
2023-05-20T18:00:09.761Z,16.90
2023-05-20T18:02:39.323Z,16.80
2023-05-20T18:05:10.769Z,16.80
2023-05-20T18:07:39.275Z,16.80
2023-05-20T18:10:09.440Z,16.80
2023-05-20T18:12:37.947Z,16.80
2023-05-20T18:15:09.636Z,16.70
2023-05-20T18:17:40.184Z,16.70
2023-05-20T18:20:10.858Z,16.70
2023-05-20T18:22:42.709Z,16.70
2023-05-20T18:25:12.333Z,16.60
2023-05-20T18:27:41.247Z,16.50
2023-05-20T18:30:11.955Z,16.50
2023-05-20T18:32:40.667Z,16.40
2023-05-20T18:35:10.316Z,16.30
2023-05-20T18:37:38.946Z,16.30
2023-05-20T18:40:09.550Z,16.30
2023-05-20T18:42:38.101Z,16.20
2023-05-20T18:45:08.410Z,16.20
2023-05-20T18:47:38.391Z,16.20
2023-05-20T18:50:08.627Z,16.20
2023-05-20T18:52:37.226Z,16.10
2023-05-20T18:55:06.528Z,16.10
2023-05-20T18:57:35.091Z,16.00
2023-05-20T19:00:04.835Z,15.90
2023-05-20T19:02:33.307Z,15.90
2023-05-20T19:05:03.190Z,15.80
2023-05-20T19:07:31.698Z,15.80
2023-05-20T19:10:00.209Z,15.70
2023-05-20T19:12:28.788Z,15.80
2023-05-20T19:14:57.677Z,15.80
2023-05-20T19:17:26.245Z,15.90
2023-05-20T19:19:54.852Z,15.90
2023-05-20T19:22:24.729Z,15.90
2023-05-20T19:24:53.221Z,15.90
2023-05-20T19:27:21.736Z,15.90
2023-05-20T19:29:50.244Z,15.90
2023-05-20T19:32:18.860Z,15.90
2023-05-20T19:34:47.316Z,15.90
2023-05-20T19:37:15.886Z,15.80
2023-05-20T19:39:45.993Z,15.80
2023-05-20T19:42:14.461Z,15.80
2023-05-20T19:44:42.882Z,15.70
2023-05-20T19:47:12.192Z,15.70
2023-05-20T19:49:40.842Z,15.60
2023-05-20T19:52:09.402Z,15.60
2023-05-20T19:54:37.907Z,15.60
2023-05-20T19:57:07.860Z,15.50
2023-05-20T19:59:37.956Z,15.40
2023-05-20T20:02:07.154Z,15.40
2023-05-20T20:04:36.167Z,15.30
2023-05-20T20:07:07.474Z,15.30
2023-05-20T20:09:36.220Z,15.20
2023-05-20T20:12:05.471Z,15.20
2023-05-20T20:14:35.439Z,15.20
2023-05-20T20:17:04.173Z,15.10
2023-05-20T20:19:32.738Z,15.10
2023-05-20T20:22:01.295Z,15.10
2023-05-20T20:24:29.742Z,15.10
2023-05-20T20:26:58.359Z,15.10
2023-05-20T20:29:27.255Z,15.10
2023-05-20T20:31:59.235Z,15.00
2023-05-20T20:34:27.848Z,15.00
2023-05-20T20:36:56.450Z,15.00
2023-05-20T20:39:25.214Z,15.00
2023-05-20T20:41:54.574Z,14.90
2023-05-20T20:44:23.485Z,14.90
2023-05-20T20:46:52.414Z,14.80
2023-05-20T20:49:24.761Z,14.80
2023-05-20T20:51:54.853Z,14.80
2023-05-20T20:54:23.365Z,14.80
2023-05-20T20:56:51.988Z,14.80
2023-05-20T20:59:26.178Z,14.80
2023-05-20T21:01:54.803Z,14.70
2023-05-20T21:04:27.699Z,14.70
2023-05-20T21:06:56.495Z,14.70
2023-05-20T21:09:25.021Z,14.70
2023-05-20T21:11:53.578Z,14.60
2023-05-20T21:14:22.003Z,14.60
2023-05-20T21:16:50.583Z,14.50
2023-05-20T21:19:19.257Z,14.50
2023-05-20T21:21:49.182Z,14.40
2023-05-20T21:24:19.720Z,14.40
2023-05-20T21:26:48.277Z,14.40
2023-05-20T21:29:16.722Z,14.30
2023-05-20T21:31:45.176Z,14.20
2023-05-20T21:34:13.850Z,14.10
2023-05-20T21:36:42.352Z,14.10
2023-05-20T21:39:12.248Z,14.00
2023-05-20T21:41:40.811Z,14.00
2023-05-20T21:44:09.350Z,13.90
2023-05-20T21:46:37.973Z,13.90
2023-05-20T21:49:06.503Z,13.90
2023-05-20T21:51:34.960Z,13.80
2023-05-20T21:54:03.593Z,13.60
2023-05-20T21:56:33.427Z,13.60
2023-05-20T21:59:01.993Z,13.60
2023-05-20T22:01:30.531Z,13.50
2023-05-20T22:03:59.543Z,13.50
2023-05-20T22:06:28.009Z,13.40
2023-05-20T22:08:56.564Z,13.30
2023-05-20T22:11:26.406Z,13.30
2023-05-20T22:13:56.261Z,13.20
2023-05-20T22:16:24.820Z,13.10
2023-05-20T22:18:53.950Z,13.00
2023-05-20T22:21:22.648Z,13.00
2023-05-20T22:23:51.293Z,13.00
2023-05-20T22:26:19.971Z,12.90
2023-05-20T22:28:48.532Z,12.90
2023-05-20T22:31:18.346Z,12.80
2023-05-20T22:33:46.913Z,12.70
2023-05-20T22:36:15.405Z,12.70
2023-05-20T22:38:44.023Z,12.50
2023-05-20T22:41:12.607Z,12.50
2023-05-20T22:43:41.113Z,12.50
2023-05-20T22:46:09.781Z,12.40
2023-05-20T22:48:39.728Z,12.40
2023-05-20T22:51:08.936Z,12.30
2023-05-20T22:53:37.518Z,12.30
2023-05-20T22:56:07.032Z,12.20
2023-05-20T22:58:39.757Z,12.20
2023-05-20T23:01:08.468Z,12.20
2023-05-20T23:03:37.517Z,12.20
2023-05-20T23:06:07.699Z,12.10
2023-05-20T23:08:36.205Z,12.10
2023-05-20T23:11:04.718Z,12.10
2023-05-20T23:13:34.130Z,12.10
2023-05-20T23:16:02.600Z,12.10
2023-05-20T23:18:31.409Z,12.10
2023-05-20T23:21:00.662Z,12.10
2023-05-20T23:23:32.025Z,12.10
2023-05-20T23:26:01.665Z,12.10
2023-05-20T23:28:30.150Z,12.00
2023-05-20T23:30:58.597Z,11.90
2023-05-20T23:33:27.295Z,11.90
2023-05-20T23:35:55.828Z,11.80
2023-05-20T23:38:24.328Z,11.70
2023-05-20T23:40:54.808Z,11.60
2023-05-20T23:43:23.384Z,11.50
2023-05-20T23:45:52.067Z,11.50
2023-05-20T23:48:20.792Z,11.50
2023-05-20T23:50:49.621Z,11.50
2023-05-20T23:53:18.119Z,11.50
2023-05-20T23:55:49.589Z,11.50
2023-05-20T23:58:19.556Z,11.50
